Time,TemperatureF,DewpointF,PressureIn,WindDirection,WindDirectionDegrees,WindSpeedMPH,WindSpeedGustMPH,Humidity,HourlyPrecipIn,Conditions,Clouds,dailyrainin,SoftwareType,DateUTC
2013-01-09 00:01:00,54.0,48.1,30.37,North,0,0.0,0.0,80,0.00,,,0.00,WUHU216HW,2013-01-09 05:01:00,
2013-01-09 00:02:00,54.0,48.1,30.37,North,0,0.0,0.0,80,0.00,,,0.00,WUHU216HW,2013-01-09 05:02:00,
2013-01-09 00:03:00,54.0,48.1,30.37,North,0,0.0,0.0,80,0.00,,,0.00,WUHU216HW,2013-01-09 05:03:00,
2013-01-09 00:08:00,54.0,48.1,30.37,North,0,0.0,0.0,80,0.00,,,0.00,WUHU216HW,2013-01-09 05:08:00,
2013-01-09 00:13:00,53.8,47.9,30.36,North,0,0.0,0.0,80,0.00,,,0.00,WUHU216HW,2013-01-09 05:13:00,
2013-01-09 00:18:00,53.8,47.9,30.36,North,0,0.0,0.0,80,0.00,,,0.00,WUHU216HW,2013-01-09 05:18:00,
2013-01-09 00:23:00,53.8,47.9,30.36,North,0,0.0,0.0,80,0.00,,,0.00,WUHU216HW,2013-01-09 05:23:00,
2013-01-09 00:28:00,54.0,48.1,30.37,North,0,0.0,0.0,80,0.00,,,0.00,WUHU216HW,2013-01-09 05:28:00,
2013-01-09 00:33:00,54.0,48.1,30.37,North,0,0.0,0.0,80,0.00,,,0.00,WUHU216HW,2013-01-09 05:33:00,
2013-01-09 00:38:00,54.0,48.1,30.37,North,0,0.0,0.0,80,0.00,,,0.00,WUHU216HW,2013-01-09 05:38:00,
2013-01-09 00:43:00,53.8,47.9,30.37,North,0,0.0,0.0,80,0.00,,,0.00,WUHU216HW,2013-01-09 05:43:00,
2013-01-09 00:48:00,54.0,48.1,30.36,North,0,0.0,0.0,80,0.00,,,0.00,WUHU216HW,2013-01-09 05:48:00,
2013-01-09 00:53:00,54.2,48.2,30.37,North,0,0.0,0.0,80,0.00,,,0.00,WUHU216HW,2013-01-09 05:53:00,
2013-01-09 00:58:00,54.2,48.2,30.37,North,0,0.0,0.0,80,0.00,,,0.00,WUHU216HW,2013-01-09 05:58:00,
2013-01-09 01:03:00,54.2,48.2,30.37,North,0,0.0,0.0,80,0.00,,,0.00,WUHU216HW,2013-01-09 06:03:00,
2013-01-09 01:08:00,54.2,48.2,30.36,North,0,0.0,0.0,80,0.00,,,0.00,WUHU216HW,2013-01-09 06:08:00,
2013-01-09 01:13:00,54.2,48.2,30.36,North,0,0.0,0.0,80,0.00,,,0.00,WUHU216HW,2013-01-09 06:13:00,
2013-01-09 01:19:00,54.2,48.2,30.36,North,0,0.0,0.0,80,0.00,,,0.00,WUHU216HW,2013-01-09 06:19:00,
2013-01-09 01:24:00,54.2,48.2,30.36,North,0,0.0,0.0,80,0.00,,,0.00,WUHU216HW,2013-01-09 06:24:00,
2013-01-09 01:29:00,54.2,48.2,30.36,North,0,0.0,0.0,80,0.00,,,0.00,WUHU216HW,2013-01-09 06:29:00,
2013-01-09 01:34:00,54.2,48.2,30.36,North,0,0.0,0.0,80,0.00,,,0.00,WUHU216HW,2013-01-09 06:34:00,
2013-01-09 01:39:00,54.0,48.1,30.36,North,0,0.0,0.0,80,0.00,,,0.00,WUHU216HW,2013-01-09 06:39:00,
2013-01-09 01:44:00,54.2,48.2,30.35,North,0,0.0,0.0,80,0.00,,,0.00,WUHU216HW,2013-01-09 06:44:00,
2013-01-09 01:49:00,54.4,48.3,30.35,North,0,0.0,0.0,80,0.00,,,0.00,WUHU216HW,2013-01-09 06:49:00,
2013-01-09 01:54:00,54.4,48.3,30.35,North,0,0.0,0.0,80,0.00,,,0.00,WUHU216HW,2013-01-09 06:54:00,
2013-01-09 01:59:00,54.7,48.7,30.35,North,0,0.0,0.0,80,0.00,,,0.00,WUHU216HW,2013-01-09 06:59:00,
2013-01-09 02:04:00,54.9,48.5,30.35,North,0,0.0,0.0,79,0.00,,,0.00,WUHU216HW,2013-01-09 07:04:00,
2013-01-09 02:09:00,55.1,48.7,30.35,North,0,0.0,0.0,79,0.00,,,0.00,WUHU216HW,2013-01-09 07:09:00,
2013-01-09 02:14:00,55.1,48.7,30.36,North,0,0.0,0.0,79,0.00,,,0.00,WUHU216HW,2013-01-09 07:14:00,
2013-01-09 02:20:00,55.3,48.8,30.36,North,0,0.0,0.0,79,0.00,,,0.00,WUHU216HW,2013-01-09 07:20:00,
2013-01-09 02:25:00,55.4,49.0,30.36,North,0,0.0,0.0,79,0.00,,,0.00,WUHU216HW,2013-01-09 07:25:00,
2013-01-09 02:30:00,55.4,48.6,30.36,North,0,0.0,0.0,78,0.00,,,0.00,WUHU216HW,2013-01-09 07:30:00,
2013-01-09 02:35:00,55.4,48.6,30.36,North,0,0.0,0.0,78,0.00,,,0.00,WUHU216HW,2013-01-09 07:35:00,
2013-01-09 02:40:00,55.3,48.5,30.36,North,0,0.0,0.0,78,0.00,,,0.00,WUHU216HW,2013-01-09 07:40:00,
2013-01-09 02:45:00,55.3,48.5,30.36,North,0,0.0,0.0,78,0.00,,,0.00,WUHU216HW,2013-01-09 07:45:00,
2013-01-09 02:50:00,55.1,48.3,30.36,North,0,0.0,0.0,78,0.00,,,0.00,WUHU216HW,2013-01-09 07:50:00,
2013-01-09 02:55:00,55.1,48.3,30.36,North,0,0.0,0.0,78,0.00,,,0.00,WUHU216HW,2013-01-09 07:55:00,
2013-01-09 03:00:00,55.1,48.3,30.36,North,0,0.0,0.0,78,0.00,,,0.00,WUHU216HW,2013-01-09 08:00:00,
2013-01-09 03:06:00,54.9,48.2,30.36,North,0,0.0,0.0,78,0.00,,,0.00,WUHU216HW,2013-01-09 08:06:00,
2013-01-09 03:11:00,54.9,48.2,30.36,North,0,0.0,0.0,78,0.00,,,0.00,WUHU216HW,2013-01-09 08:11:00,
2013-01-09 03:16:00,54.9,48.2,30.36,North,0,0.0,0.0,78,0.00,,,0.00,WUHU216HW,2013-01-09 08:16:00,
2013-01-09 03:21:00,55.1,48.3,30.36,North,0,0.0,0.0,78,0.00,,,0.00,WUHU216HW,2013-01-09 08:21:00,
2013-01-09 03:26:00,54.9,48.2,30.36,North,0,0.0,0.0,78,0.00,,,0.00,WUHU216HW,2013-01-09 08:26:00,
2013-01-09 03:31:00,54.9,48.2,30.36,North,0,0.0,0.0,78,0.00,,,0.00,WUHU216HW,2013-01-09 08:31:00,
2013-01-09 03:36:00,54.9,48.2,30.35,North,0,0.0,0.0,78,0.00,,,0.00,WUHU216HW,2013-01-09 08:36:00,
2013-01-09 03:41:00,54.9,48.2,30.35,North,0,0.0,0.0,78,0.00,,,0.00,WUHU216HW,2013-01-09 08:41:00,
2013-01-09 03:46:00,54.7,48.0,30.35,North,0,0.0,0.0,78,0.00,,,0.00,WUHU216HW,2013-01-09 08:46:00,
2013-01-09 03:51:00,54.7,48.0,30.35,North,0,0.0,0.0,78,0.00,,,0.00,WUHU216HW,2013-01-09 08:51:00,
2013-01-09 03:57:00,54.7,48.0,30.35,North,0,0.0,0.0,78,0.00,,,0.00,WUHU216HW,2013-01-09 08:57:00,
2013-01-09 04:02:00,54.9,48.2,30.35,North,0,0.0,0.0,78,0.00,,,0.00,WUHU216HW,2013-01-09 09:02:00,
2013-01-09 04:07:00,55.1,48.3,30.35,North,0,0.0,0.0,78,0.00,,,0.00,WUHU216HW,2013-01-09 09:07:00,
2013-01-09 04:12:00,55.1,48.3,30.35,North,0,0.0,0.0,78,0.00,,,0.00,WUHU216HW,2013-01-09 09:12:00,
2013-01-09 04:17:00,55.1,48.7,30.35,North,0,0.0,0.0,79,0.00,,,0.00,WUHU216HW,2013-01-09 09:17:00,
2013-01-09 04:22:00,55.1,48.7,30.35,North,0,0.0,0.0,79,0.00,,,0.00,WUHU216HW,2013-01-09 09:22:00,
2013-01-09 04:27:00,55.1,48.7,30.35,North,0,0.0,0.0,79,0.00,,,0.00,WUHU216HW,2013-01-09 09:27:00,
2013-01-09 04:33:00,55.1,48.7,30.35,North,0,0.0,0.0,79,0.00,,,0.00,WUHU216HW,2013-01-09 09:33:00,
2013-01-09 04:38:00,55.1,48.7,30.35,North,0,0.0,0.0,79,0.00,,,0.00,WUHU216HW,2013-01-09 09:38:00,
2013-01-09 04:43:00,55.3,48.8,30.35,North,0,0.0,0.0,79,0.00,,,0.00,WUHU216HW,2013-01-09 09:43:00,
2013-01-09 04:48:00,55.6,49.1,30.35,North,0,0.0,0.0,79,0.00,,,0.00,WUHU216HW,2013-01-09 09:48:00,
2013-01-09 04:53:00,55.6,49.1,30.35,North,0,0.0,0.0,79,0.00,,,0.00,WUHU216HW,2013-01-09 09:53:00,
2013-01-09 04:58:00,55.8,49.0,30.35,North,0,0.0,0.0,78,0.00,,,0.00,WUHU216HW,2013-01-09 09:58:00,
2013-01-09 05:03:00,55.8,49.0,30.35,North,0,0.0,0.0,78,0.00,,,0.00,WUHU216HW,2013-01-09 10:03:00,
2013-01-09 05:08:00,55.8,49.0,30.35,North,0,0.0,0.0,78,0.00,,,0.00,WUHU216HW,2013-01-09 10:08:00,
2013-01-09 05:13:00,56.0,49.1,30.34,North,0,0.0,0.0,78,0.00,,,0.00,WUHU216HW,2013-01-09 10:13:00,
2013-01-09 05:18:00,56.0,48.8,30.35,North,0,0.0,0.0,77,0.00,,,0.00,WUHU216HW,2013-01-09 10:18:00,
2013-01-09 05:23:00,56.0,48.8,30.35,North,0,0.0,0.0,77,0.00,,,0.00,WUHU216HW,2013-01-09 10:23:00,
2013-01-09 05:28:00,56.0,48.8,30.35,North,0,0.0,0.0,77,0.00,,,0.00,WUHU216HW,2013-01-09 10:28:00,
2013-01-09 05:33:00,56.0,48.8,30.35,North,0,0.0,0.0,77,0.00,,,0.00,WUHU216HW,2013-01-09 10:33:00,
2013-01-09 05:38:00,56.0,48.8,30.35,North,0,0.0,0.0,77,0.00,,,0.00,WUHU216HW,2013-01-09 10:38:00,
2013-01-09 05:44:00,56.2,49.0,30.35,North,0,0.0,0.0,77,0.00,,,0.00,WUHU216HW,2013-01-09 10:44:00,
2013-01-09 05:49:00,56.2,49.0,30.35,North,0,0.0,0.0,77,0.00,,,0.00,WUHU216HW,2013-01-09 10:49:00,
2013-01-09 05:54:00,56.3,49.1,30.35,North,0,0.0,0.0,77,0.00,,,0.00,WUHU216HW,2013-01-09 10:54:00,
2013-01-09 05:59:00,56.7,49.1,30.35,North,0,0.0,0.0,76,0.00,,,0.00,WUHU216HW,2013-01-09 10:59:00,
2013-01-09 06:04:00,56.9,49.3,30.35,North,0,0.0,0.0,76,0.00,,,0.00,WUHU216HW,2013-01-09 11:04:00,
2013-01-09 06:09:00,56.7,49.1,30.35,North,0,0.0,0.0,76,0.00,,,0.00,WUHU216HW,2013-01-09 11:09:00,
2013-01-09 06:14:00,56.7,49.1,30.35,North,0,0.0,0.0,76,0.00,,,0.00,WUHU216HW,2013-01-09 11:14:00,
2013-01-09 06:19:00,56.9,49.3,30.36,North,0,0.0,0.0,76,0.00,,,0.00,WUHU216HW,2013-01-09 11:19:00,
2013-01-09 06:24:00,57.1,49.5,30.36,North,0,0.0,0.0,76,0.00,,,0.00,WUHU216HW,2013-01-09 11:24:00,
2013-01-09 06:29:00,57.2,49.7,30.36,North,0,0.0,0.0,76,0.00,,,0.00,WUHU216HW,2013-01-09 11:29:00,
2013-01-09 06:34:00,57.2,49.3,30.36,North,0,0.0,0.0,75,0.00,,,0.00,WUHU216HW,2013-01-09 11:34:00,
2013-01-09 06:39:00,57.2,49.3,30.36,North,0,0.0,0.0,75,0.00,,,0.00,WUHU216HW,2013-01-09 11:39:00,
2013-01-09 06:44:00,57.4,49.5,30.36,North,0,0.0,0.0,75,0.00,,,0.00,WUHU216HW,2013-01-09 11:44:00,
2013-01-09 06:49:00,57.6,49.7,30.36,North,0,0.0,0.0,75,0.00,,,0.00,WUHU216HW,2013-01-09 11:49:00,
2013-01-09 06:54:00,57.6,49.7,30.37,North,0,0.0,0.0,75,0.00,,,0.00,WUHU216HW,2013-01-09 11:54:00,
2013-01-09 06:59:00,57.8,49.9,30.37,North,0,0.0,0.0,75,0.00,,,0.00,WUHU216HW,2013-01-09 11:59:00,
2013-01-09 07:04:00,58.0,50.0,30.38,North,0,0.0,0.0,75,0.00,,,0.00,WUHU216HW,2013-01-09 12:04:00,
2013-01-09 07:09:00,58.1,49.9,30.38,North,0,0.0,0.0,74,0.00,,,0.00,WUHU216HW,2013-01-09 12:09:00,
2013-01-09 07:14:00,57.6,49.3,30.39,North,0,0.0,0.0,74,0.00,,,0.00,WUHU216HW,2013-01-09 12:14:00,
2013-01-09 07:19:00,56.3,48.5,30.39,North,0,0.0,0.0,75,0.00,,,0.00,WUHU216HW,2013-01-09 12:19:00,
2013-01-09 07:24:00,55.8,48.0,30.39,North,0,0.0,0.0,75,0.00,,,0.00,WUHU216HW,2013-01-09 12:24:00,
2013-01-09 07:29:00,55.8,48.3,30.39,North,0,0.0,0.0,76,0.00,,,0.00,WUHU216HW,2013-01-09 12:29:00,
2013-01-09 07:34:00,55.8,48.3,30.40,North,0,0.0,0.0,76,0.00,,,0.00,WUHU216HW,2013-01-09 12:34:00,
2013-01-09 07:40:00,56.2,48.6,30.39,North,0,0.0,0.0,76,0.00,,,0.00,WUHU216HW,2013-01-09 12:40:00,
2013-01-09 07:44:00,56.3,48.5,30.39,North,0,0.0,0.0,75,0.00,,,0.00,WUHU216HW,2013-01-09 12:44:00,
2013-01-09 07:49:00,56.7,48.8,30.39,North,0,0.0,0.0,75,0.00,,,0.00,WUHU216HW,2013-01-09 12:49:00,
2013-01-09 07:54:00,57.1,49.1,30.40,North,0,0.0,0.0,75,0.00,,,0.00,WUHU216HW,2013-01-09 12:54:00,
2013-01-09 07:59:00,57.4,49.5,30.40,North,0,0.0,0.0,75,0.00,,,0.00,WUHU216HW,2013-01-09 12:59:00,
2013-01-09 08:05:00,57.2,49.3,30.41,North,0,0.0,0.0,75,0.00,,,0.00,WUHU216HW,2013-01-09 13:05:00,
2013-01-09 08:10:00,57.1,49.1,30.41,North,0,0.0,0.0,75,0.00,,,0.00,WUHU216HW,2013-01-09 13:10:00,
2013-01-09 08:15:00,56.9,49.0,30.41,North,0,0.0,0.0,75,0.00,,,0.00,WUHU216HW,2013-01-09 13:15:00,
2013-01-09 08:20:00,56.7,48.8,30.41,North,0,0.0,0.0,75,0.00,,,0.00,WUHU216HW,2013-01-09 13:20:00,
2013-01-09 08:25:00,57.1,49.1,30.41,North,0,0.0,0.0,75,0.00,,,0.00,WUHU216HW,2013-01-09 13:25:00,
2013-01-09 08:30:00,57.4,49.5,30.41,North,0,0.0,0.0,75,0.00,,,0.00,WUHU216HW,2013-01-09 13:30:00,
2013-01-09 08:35:00,58.0,49.7,30.41,North,0,0.0,0.0,74,0.00,,,0.00,WUHU216HW,2013-01-09 13:35:00,
2013-01-09 08:40:00,58.5,50.2,30.40,North,0,0.0,0.0,74,0.00,,,0.00,WUHU216HW,2013-01-09 13:40:00,
2013-01-09 08:45:00,59.0,50.4,30.40,North,0,0.0,0.0,73,0.00,,,0.00,WUHU216HW,2013-01-09 13:45:00,
2013-01-09 08:50:00,59.6,50.9,30.40,North,0,0.0,0.0,73,0.00,,,0.00,WUHU216HW,2013-01-09 13:50:00,
2013-01-09 08:55:00,59.4,50.8,30.40,North,0,0.0,0.0,73,0.00,,,0.00,WUHU216HW,2013-01-09 13:55:00,
2013-01-09 09:00:00,59.4,50.8,30.40,North,0,0.0,0.0,73,0.00,,,0.00,WUHU216HW,2013-01-09 14:00:00,
2013-01-09 09:05:00,59.4,50.8,30.40,North,0,0.0,0.0,73,0.00,,,0.00,WUHU216HW,2013-01-09 14:05:00,
2013-01-09 09:10:00,59.6,50.9,30.41,North,0,0.0,0.0,73,0.00,,,0.00,WUHU216HW,2013-01-09 14:10:00,
2013-01-09 09:15:00,60.1,51.1,30.41,North,0,0.0,0.0,72,0.00,,,0.00,WUHU216HW,2013-01-09 14:15:00,
2013-01-09 09:20:00,60.3,50.9,30.41,North,0,0.0,0.0,71,0.00,,,0.00,WUHU216HW,2013-01-09 14:20:00,
2013-01-09 09:25:00,60.7,51.3,30.41,North,0,0.0,0.0,71,0.00,,,0.00,WUHU216HW,2013-01-09 14:25:00,
2013-01-09 09:38:00,60.5,51.1,30.42,North,0,0.0,0.0,71,0.00,,,0.00,WUHU216HW,2013-01-09 14:38:00,
2013-01-09 09:43:00,60.5,51.1,30.42,North,0,0.0,0.0,71,0.00,,,0.00,WUHU216HW,2013-01-09 14:43:00,
2013-01-09 09:48:00,60.5,51.1,30.42,North,0,0.0,0.0,71,0.00,,,0.00,WUHU216HW,2013-01-09 14:48:00,
2013-01-09 10:00:00,61.7,51.9,30.42,North,0,0.0,0.0,70,0.00,,,0.00,WUHU216HW,2013-01-09 15:00:00,
2013-01-09 10:05:00,61.2,51.5,30.42,North,0,0.0,0.0,70,0.00,,,0.00,WUHU216HW,2013-01-09 15:05:00,
2013-01-09 10:10:00,60.8,51.5,30.41,North,0,0.0,0.0,71,0.00,,,0.00,WUHU216HW,2013-01-09 15:10:00,
2013-01-09 10:15:00,60.5,51.1,30.41,North,0,0.0,0.0,71,0.00,,,0.00,WUHU216HW,2013-01-09 15:15:00,
2013-01-09 10:20:00,60.1,50.8,30.41,North,0,0.0,0.0,71,0.00,,,0.00,WUHU216HW,2013-01-09 15:20:00,
2013-01-09 10:25:00,60.1,51.1,30.41,North,0,0.0,0.0,72,0.00,,,0.00,WUHU216HW,2013-01-09 15:25:00,
2013-01-09 10:30:00,59.9,50.9,30.41,North,0,0.0,0.0,72,0.00,,,0.00,WUHU216HW,2013-01-09 15:30:00,
2013-01-09 10:35:00,59.8,50.8,30.41,North,0,0.0,0.0,72,0.00,,,0.00,WUHU216HW,2013-01-09 15:35:00,
2013-01-09 10:40:00,59.8,50.8,30.40,North,0,0.0,0.0,72,0.00,,,0.00,WUHU216HW,2013-01-09 15:40:00,
2013-01-09 10:45:00,59.8,50.8,30.40,North,0,0.0,0.0,72,0.00,,,0.00,WUHU216HW,2013-01-09 15:45:00,
2013-01-09 10:50:00,59.4,50.4,30.40,North,0,0.0,0.0,72,0.00,,,0.00,WUHU216HW,2013-01-09 15:50:00,
2013-01-09 10:55:00,59.4,50.4,30.40,North,0,0.0,0.0,72,0.00,,,0.00,WUHU216HW,2013-01-09 15:55:00,
2013-01-09 11:00:00,59.2,50.2,30.39,North,0,0.0,0.0,72,0.00,,,0.00,WUHU216HW,2013-01-09 16:00:00,
2013-01-09 11:05:00,58.9,49.9,30.39,North,0,0.0,0.0,72,0.00,,,0.00,WUHU216HW,2013-01-09 16:05:00,
2013-01-09 11:10:00,58.7,50.0,30.39,North,0,0.0,0.0,73,0.00,,,0.00,WUHU216HW,2013-01-09 16:10:00,
2013-01-09 11:15:00,58.7,50.0,30.39,North,0,0.0,0.0,73,0.00,,,0.00,WUHU216HW,2013-01-09 16:15:00,
2013-01-09 11:21:00,58.9,50.2,30.38,North,0,0.0,0.0,73,0.00,,,0.00,WUHU216HW,2013-01-09 16:21:00,
2013-01-09 11:25:00,59.2,50.6,30.38,North,0,0.0,0.0,73,0.00,,,0.00,WUHU216HW,2013-01-09 16:25:00,
2013-01-09 11:30:00,59.4,50.4,30.39,North,0,0.0,0.0,72,0.00,,,0.00,WUHU216HW,2013-01-09 16:30:00,
2013-01-09 11:35:00,59.8,50.8,30.38,North,0,0.0,0.0,72,0.00,,,0.00,WUHU216HW,2013-01-09 16:35:00,
2013-01-09 11:41:00,60.1,51.1,30.38,North,0,0.0,0.0,72,0.00,,,0.00,WUHU216HW,2013-01-09 16:41:00,
2013-01-09 11:46:00,59.8,50.8,30.38,North,0,0.0,0.0,72,0.00,,,0.00,WUHU216HW,2013-01-09 16:46:00,
2013-01-09 11:51:00,59.8,50.8,30.38,North,0,0.0,0.0,72,0.00,,,0.00,WUHU216HW,2013-01-09 16:51:00,
2013-01-09 11:56:00,59.8,50.8,30.38,North,0,0.0,0.0,72,0.00,,,0.00,WUHU216HW,2013-01-09 16:56:00,
2013-01-09 12:01:00,59.8,50.8,30.37,North,0,0.0,0.0,72,0.00,,,0.00,WUHU216HW,2013-01-09 17:01:00,
2013-01-09 12:06:00,60.1,51.1,30.37,North,0,0.0,0.0,72,0.00,,,0.00,WUHU216HW,2013-01-09 17:06:00,
2013-01-09 12:11:00,60.1,50.8,30.37,North,0,0.0,0.0,71,0.00,,,0.00,WUHU216HW,2013-01-09 17:11:00,
2013-01-09 12:17:00,60.5,51.1,30.37,North,0,0.0,0.0,71,0.00,,,0.00,WUHU216HW,2013-01-09 17:17:00,
2013-01-09 12:22:00,60.5,51.1,30.37,North,0,0.0,0.0,71,0.00,,,0.00,WUHU216HW,2013-01-09 17:22:00,
2013-01-09 12:27:00,60.7,51.3,30.36,North,0,0.0,0.0,71,0.00,,,0.00,WUHU216HW,2013-01-09 17:27:00,
2013-01-09 12:32:00,60.8,51.5,30.36,North,0,0.0,0.0,71,0.00,,,0.00,WUHU216HW,2013-01-09 17:32:00,
2013-01-09 12:37:00,61.2,51.5,30.36,North,0,0.0,0.0,70,0.00,,,0.00,WUHU216HW,2013-01-09 17:37:00,
2013-01-09 12:42:00,61.4,51.6,30.36,North,0,0.0,0.0,70,0.00,,,0.00,WUHU216HW,2013-01-09 17:42:00,
2013-01-09 12:47:00,61.4,51.6,30.36,North,0,0.0,0.0,70,0.00,,,0.00,WUHU216HW,2013-01-09 17:47:00,
2013-01-09 12:52:00,61.6,51.8,30.36,North,0,0.0,0.0,70,0.00,,,0.00,WUHU216HW,2013-01-09 17:52:00,
2013-01-09 12:57:00,61.7,51.9,30.36,North,0,0.0,0.0,70,0.00,,,0.00,WUHU216HW,2013-01-09 17:57:00,
2013-01-09 13:02:00,61.6,51.8,30.36,North,0,0.0,0.0,70,0.00,,,0.00,WUHU216HW,2013-01-09 18:02:00,
2013-01-09 13:08:00,61.2,51.5,30.36,North,0,0.0,0.0,70,0.00,,,0.00,WUHU216HW,2013-01-09 18:08:00,
2013-01-09 13:13:00,61.0,51.3,30.36,North,0,0.0,0.0,70,0.00,,,0.00,WUHU216HW,2013-01-09 18:13:00,
2013-01-09 13:18:00,60.8,51.1,30.35,North,0,0.0,0.0,70,0.00,,,0.00,WUHU216HW,2013-01-09 18:18:00,
2013-01-09 13:23:00,61.0,51.3,30.36,North,0,0.0,0.0,70,0.00,,,0.00,WUHU216HW,2013-01-09 18:23:00,
2013-01-09 13:28:00,61.2,51.5,30.35,North,0,0.0,0.0,70,0.00,,,0.00,WUHU216HW,2013-01-09 18:28:00,
2013-01-09 13:33:00,61.4,51.6,30.35,North,0,0.0,0.0,70,0.00,,,0.00,WUHU216HW,2013-01-09 18:33:00,
2013-01-09 13:38:00,61.9,52.1,30.35,North,0,0.0,0.0,70,0.00,,,0.00,WUHU216HW,2013-01-09 18:38:00,
2013-01-09 13:41:00,62.1,52.3,30.36,North,0,0.0,0.0,70,0.00,,,0.00,WUHU216HW,2013-01-09 18:41:00,
2013-01-09 13:42:00,62.1,52.3,30.35,North,0,0.0,0.0,70,0.00,,,0.00,WUHU216HW,2013-01-09 18:42:00,
2013-01-09 13:43:00,62.3,52.4,30.35,North,0,0.0,0.0,70,0.00,,,0.00,WUHU216HW,2013-01-09 18:43:00,
2013-01-09 13:44:00,62.3,52.4,30.35,North,0,0.0,0.0,70,0.00,,,0.00,WUHU216HW,2013-01-09 18:44:00,
2013-01-09 13:45:00,62.5,52.6,30.35,North,0,0.0,0.0,70,0.00,,,0.00,WUHU216HW,2013-01-09 18:45:00,
2013-01-09 13:47:00,62.3,52.4,30.35,North,0,0.0,0.0,70,0.00,,,0.00,WUHU216HW,2013-01-09 18:47:00,
2013-01-09 13:48:00,62.5,52.6,30.36,North,0,0.0,0.0,70,0.00,,,0.00,WUHU216HW,2013-01-09 18:48:00,
2013-01-09 13:49:00,62.5,52.6,30.35,North,0,0.0,0.0,70,0.00,,,0.00,WUHU216HW,2013-01-09 18:49:00,
2013-01-09 13:50:00,62.5,52.6,30.35,North,0,0.0,0.0,70,0.00,,,0.00,WUHU216HW,2013-01-09 18:50:00,
2013-01-09 13:55:00,62.3,52.4,30.35,North,0,0.0,0.0,70,0.00,,,0.00,WUHU216HW,2013-01-09 18:55:00,
2013-01-09 14:00:00,62.3,52.4,30.36,North,0,0.0,0.0,70,0.00,,,0.00,WUHU216HW,2013-01-09 19:00:00,
2013-01-09 14:05:00,62.1,52.3,30.35,North,0,0.0,0.0,70,0.00,,,0.00,WUHU216HW,2013-01-09 19:05:00,
2013-01-09 14:10:00,62.1,52.3,30.36,North,0,0.0,0.0,70,0.00,,,0.00,WUHU216HW,2013-01-09 19:10:00,
2013-01-09 14:15:00,61.9,51.7,30.36,North,0,0.0,0.0,69,0.00,,,0.00,WUHU216HW,2013-01-09 19:15:00,
2013-01-09 14:20:00,61.9,51.7,30.36,North,0,0.0,0.0,69,0.00,,,0.00,WUHU216HW,2013-01-09 19:20:00,
2013-01-09 14:25:00,61.6,51.4,30.36,North,0,0.0,0.0,69,0.00,,,0.00,WUHU216HW,2013-01-09 19:25:00,
2013-01-09 14:30:00,61.2,51.5,30.36,North,0,0.0,0.0,70,0.00,,,0.00,WUHU216HW,2013-01-09 19:30:00,
2013-01-09 14:35:00,61.0,51.3,30.36,North,0,0.0,0.0,70,0.00,,,0.00,WUHU216HW,2013-01-09 19:35:00,
2013-01-09 14:40:00,61.2,51.5,30.36,North,0,0.0,0.0,70,0.00,,,0.00,WUHU216HW,2013-01-09 19:40:00,
2013-01-09 14:45:00,61.6,51.8,30.37,North,0,0.0,0.0,70,0.00,,,0.00,WUHU216HW,2013-01-09 19:45:00,
2013-01-09 14:50:00,61.7,51.5,30.37,North,0,0.0,0.0,69,0.00,,,0.00,WUHU216HW,2013-01-09 19:50:00,
2013-01-09 14:55:00,61.6,51.8,30.37,North,0,0.0,0.0,70,0.00,,,0.00,WUHU216HW,2013-01-09 19:55:00,
2013-01-09 15:00:00,61.7,51.5,30.37,North,0,0.0,0.0,69,0.00,,,0.00,WUHU216HW,2013-01-09 20:00:00,
2013-01-09 15:05:00,61.9,52.1,30.37,North,0,0.0,0.0,70,0.00,,,0.00,WUHU216HW,2013-01-09 20:05:00,
2013-01-09 15:10:00,62.3,52.4,30.37,North,0,0.0,0.0,70,0.00,,,0.00,WUHU216HW,2013-01-09 20:10:00,
2013-01-09 15:15:00,62.3,52.4,30.37,North,0,0.0,0.0,70,0.00,,,0.00,WUHU216HW,2013-01-09 20:15:00,
2013-01-09 15:21:00,62.1,52.3,30.37,North,0,0.0,0.0,70,0.00,,,0.00,WUHU216HW,2013-01-09 20:21:00,
2013-01-09 15:26:00,61.9,51.7,30.37,North,0,0.0,0.0,69,0.00,,,0.00,WUHU216HW,2013-01-09 20:26:00,
2013-01-09 15:31:00,61.7,51.5,30.37,North,0,0.0,0.0,69,0.00,,,0.00,WUHU216HW,2013-01-09 20:31:00,
2013-01-09 15:36:00,61.6,51.8,30.37,North,0,0.0,0.0,70,0.00,,,0.00,WUHU216HW,2013-01-09 20:36:00,
2013-01-09 15:41:00,61.6,51.8,30.37,North,0,0.0,0.0,70,0.00,,,0.00,WUHU216HW,2013-01-09 20:41:00,
2013-01-09 15:46:00,61.6,51.8,30.38,North,0,0.0,0.0,70,0.00,,,0.00,WUHU216HW,2013-01-09 20:46:00,
2013-01-09 15:51:00,61.4,51.6,30.37,North,0,0.0,0.0,70,0.00,,,0.00,WUHU216HW,2013-01-09 20:51:00,
2013-01-09 15:56:00,61.4,51.6,30.37,North,0,0.0,0.0,70,0.00,,,0.00,WUHU216HW,2013-01-09 20:56:00,
2013-01-09 16:01:00,61.4,51.6,30.37,North,0,0.0,0.0,70,0.00,,,0.00,WUHU216HW,2013-01-09 21:01:00,
2013-01-09 16:06:00,61.6,51.8,30.38,North,0,0.0,0.0,70,0.00,,,0.00,WUHU216HW,2013-01-09 21:06:00,
2013-01-09 16:11:00,61.9,51.7,30.38,North,0,0.0,0.0,69,0.00,,,0.00,WUHU216HW,2013-01-09 21:11:00,
2013-01-09 16:16:00,62.1,52.3,30.38,North,0,0.0,0.0,70,0.00,,,0.00,WUHU216HW,2013-01-09 21:16:00,
2013-01-09 16:21:00,62.1,52.3,30.38,North,0,0.0,0.0,70,0.00,,,0.00,WUHU216HW,2013-01-09 21:21:00,
2013-01-09 16:26:00,61.9,51.7,30.38,North,0,0.0,0.0,69,0.00,,,0.00,WUHU216HW,2013-01-09 21:26:00,
2013-01-09 16:31:00,61.7,51.5,30.38,North,0,0.0,0.0,69,0.00,,,0.00,WUHU216HW,2013-01-09 21:31:00,
2013-01-09 16:36:00,61.6,51.8,30.38,North,0,0.0,0.0,70,0.00,,,0.00,WUHU216HW,2013-01-09 21:36:00,
2013-01-09 16:41:00,61.6,51.8,30.38,North,0,0.0,0.0,70,0.00,,,0.00,WUHU216HW,2013-01-09 21:41:00,
2013-01-09 16:46:00,61.6,51.4,30.38,North,0,0.0,0.0,69,0.00,,,0.00,WUHU216HW,2013-01-09 21:46:00,
2013-01-09 16:51:00,61.2,51.5,30.38,North,0,0.0,0.0,70,0.00,,,0.00,WUHU216HW,2013-01-09 21:51:00,
2013-01-09 16:56:00,61.0,51.3,30.39,North,0,0.0,0.0,70,0.00,,,0.00,WUHU216HW,2013-01-09 21:56:00,
2013-01-09 17:01:00,61.0,51.3,30.39,North,0,0.0,0.0,70,0.00,,,0.00,WUHU216HW,2013-01-09 22:01:00,
2013-01-09 17:06:00,60.8,51.1,30.39,North,0,0.0,0.0,70,0.00,,,0.00,WUHU216HW,2013-01-09 22:06:00,
2013-01-09 17:11:00,61.0,51.3,30.39,North,0,0.0,0.0,70,0.00,,,0.00,WUHU216HW,2013-01-09 22:11:00,
2013-01-09 17:16:00,61.0,51.3,30.39,North,0,0.0,0.0,70,0.00,,,0.00,WUHU216HW,2013-01-09 22:16:00,
2013-01-09 17:21:00,61.0,51.3,30.39,North,0,0.0,0.0,70,0.00,,,0.00,WUHU216HW,2013-01-09 22:21:00,
2013-01-09 17:26:00,61.0,51.3,30.39,North,0,0.0,0.0,70,0.00,,,0.00,WUHU216HW,2013-01-09 22:26:00,
2013-01-09 17:31:00,60.8,51.1,30.39,North,0,0.0,0.0,70,0.00,,,0.00,WUHU216HW,2013-01-09 22:31:00,
2013-01-09 17:36:00,60.8,51.1,30.39,North,0,0.0,0.0,70,0.00,,,0.00,WUHU216HW,2013-01-09 22:36:00,
2013-01-09 17:41:00,60.7,51.3,30.39,North,0,0.0,0.0,71,0.00,,,0.00,WUHU216HW,2013-01-09 22:41:00,
2013-01-09 17:46:00,60.3,50.9,30.39,North,0,0.0,0.0,71,0.00,,,0.00,WUHU216HW,2013-01-09 22:46:00,
2013-01-09 17:51:00,60.1,50.8,30.39,North,0,0.0,0.0,71,0.00,,,0.00,WUHU216HW,2013-01-09 22:51:00,
2013-01-09 17:56:00,59.9,50.6,30.39,North,0,0.0,0.0,71,0.00,,,0.00,WUHU216HW,2013-01-09 22:56:00,
2013-01-09 18:01:00,59.4,50.4,30.39,North,0,0.0,0.0,72,0.00,,,0.00,WUHU216HW,2013-01-09 23:01:00,
2013-01-09 18:06:00,59.2,50.2,30.39,North,0,0.0,0.0,72,0.00,,,0.00,WUHU216HW,2013-01-09 23:06:00,
2013-01-09 18:11:00,58.9,49.9,30.39,North,0,0.0,0.0,72,0.00,,,0.00,WUHU216HW,2013-01-09 23:11:00,
2013-01-09 18:16:00,58.7,50.0,30.39,North,0,0.0,0.0,73,0.00,,,0.00,WUHU216HW,2013-01-09 23:16:00,
2013-01-09 18:21:00,58.5,49.9,30.39,North,0,0.0,0.0,73,0.00,,,0.00,WUHU216HW,2013-01-09 23:21:00,
2013-01-09 18:26:00,58.5,49.9,30.39,North,0,0.0,0.0,73,0.00,,,0.00,WUHU216HW,2013-01-09 23:26:00,
2013-01-09 19:00:00,57.4,49.1,30.39,North,0,0.0,0.0,74,0.00,,,0.00,WUHU216HW,2013-01-10 00:00:00,
2013-01-09 19:05:00,57.4,49.1,30.39,North,0,0.0,0.0,74,0.00,,,0.00,WUHU216HW,2013-01-10 00:05:00,
2013-01-09 20:00:00,56.9,49.0,30.39,North,0,0.0,0.0,75,0.00,,,0.00,WUHU216HW,2013-01-10 01:00:00,
2013-01-09 20:05:00,56.9,49.0,30.39,North,0,0.0,0.0,75,0.00,,,0.00,WUHU216HW,2013-01-10 01:05:00,
2013-01-09 21:00:00,58.0,50.4,30.39,North,0,0.0,0.0,76,0.00,,,0.00,WUHU216HW,2013-01-10 02:00:00,
2013-01-09 21:05:00,58.0,50.4,30.39,North,0,0.0,0.0,76,0.00,,,0.00,WUHU216HW,2013-01-10 02:05:00,
2013-01-09 22:00:00,58.9,51.3,30.38,North,0,0.0,0.0,76,0.00,,,0.00,WUHU216HW,2013-01-10 03:00:00,
2013-01-09 22:05:00,58.9,51.3,30.38,North,0,0.0,0.0,76,0.00,,,0.00,WUHU216HW,2013-01-10 03:05:00,
2013-01-09 23:00:00,58.7,51.5,30.39,North,0,0.0,0.0,77,0.00,,,0.00,WUHU216HW,2013-01-10 04:00:00,
2013-01-09 23:05:00,58.5,51.7,30.40,North,0,0.0,0.0,78,0.00,,,0.00,WUHU216HW,2013-01-10 04:05:00,
2013-01-09 23:10:00,58.3,51.5,30.40,North,0,0.0,0.0,78,0.00,,,0.00,WUHU216HW,2013-01-10 04:10:00,
2013-01-09 23:15:00,58.0,51.1,30.39,North,0,0.0,0.0,78,0.00,,,0.00,WUHU216HW,2013-01-10 04:15:00,
2013-01-09 23:20:00,58.0,51.1,30.40,North,0,0.0,0.0,78,0.00,,,0.00,WUHU216HW,2013-01-10 04:20:00,
2013-01-09 23:25:00,58.0,51.1,30.39,North,0,0.0,0.0,78,0.00,,,0.00,WUHU216HW,2013-01-10 04:25:00,
2013-01-09 23:31:00,58.0,51.5,30.40,North,0,0.0,0.0,79,0.00,,,0.00,WUHU216HW,2013-01-10 04:31:00,
2013-01-09 23:36:00,58.0,51.5,30.40,North,0,0.0,0.0,79,0.00,,,0.00,WUHU216HW,2013-01-10 04:36:00,
2013-01-09 23:41:00,58.1,51.7,30.40,North,0,0.0,0.0,79,0.00,,,0.00,WUHU216HW,2013-01-10 04:41:00,
2013-01-09 23:46:00,58.1,51.7,30.40,North,0,0.0,0.0,79,0.00,,,0.00,WUHU216HW,2013-01-10 04:46:00,
2013-01-09 23:51:00,58.0,51.5,30.41,North,0,0.0,0.0,79,0.00,,,0.00,WUHU216HW,2013-01-10 04:51:00,
2013-01-09 23:56:00,58.0,51.5,30.41,North,0,0.0,0.0,79,0.00,,,0.00,WUHU216HW,2013-01-10 04:56:00,